createdAt,value
2023-03-29T00:01:10.127Z,84.49
2023-03-29T00:03:39.514Z,83.67
2023-03-29T00:06:08.532Z,84.73
2023-03-29T00:08:40.025Z,84.38
2023-03-29T00:11:08.786Z,84.31
2023-03-29T00:13:38.187Z,84.75
2023-03-29T00:16:07.268Z,85.11
2023-03-29T00:18:36.122Z,85.09
2023-03-29T00:21:05.316Z,85.35
2023-03-29T00:23:33.947Z,85.72
2023-03-29T00:26:07.180Z,85.38
2023-03-29T00:28:36.486Z,83.42
2023-03-29T00:31:08.328Z,81.21
2023-03-29T00:33:37.101Z,83.35
2023-03-29T00:36:07.339Z,83.96
2023-03-29T00:38:36.797Z,83.54
2023-03-29T00:41:07.796Z,83.11
2023-03-29T00:43:56.966Z,82.19
2023-03-29T00:46:27.175Z,82.21
2023-03-29T00:48:58.126Z,82.04
2023-03-29T00:51:29.327Z,81.16
2023-03-29T00:54:00.810Z,83.27
2023-03-29T00:56:34.766Z,82.69
2023-03-29T00:59:05.749Z,81.19
2023-03-29T01:01:38.110Z,81.18
2023-03-29T01:04:09.464Z,81.25
2023-03-29T01:06:39.265Z,81.40
2023-03-29T01:09:10.306Z,81.45
2023-03-29T01:11:42.813Z,81.68
2023-03-29T01:14:15.256Z,82.17
2023-03-29T01:16:43.891Z,83.46
2023-03-29T01:19:15.379Z,83.64
2023-03-29T01:21:46.000Z,82.41
2023-03-29T01:24:34.333Z,81.03
2023-03-29T01:27:11.310Z,81.86
2023-03-29T01:29:45.541Z,81.98
2023-03-29T01:32:17.104Z,81.95
2023-03-29T01:34:50.269Z,83.62
2023-03-29T01:37:24.564Z,83.79
2023-03-29T01:39:53.725Z,82.99
2023-03-29T01:42:33.247Z,82.83
2023-03-29T01:45:09.760Z,83.45
2023-03-29T01:47:46.476Z,83.46
2023-03-29T01:50:18.369Z,82.91
2023-03-29T01:52:51.319Z,81.08
2023-03-29T01:55:23.595Z,82.27
2023-03-29T01:57:53.976Z,81.82
2023-03-29T02:00:27.442Z,82.01
2023-03-29T02:03:00.085Z,82.95
2023-03-29T02:05:30.617Z,81.31
2023-03-29T02:08:00.583Z,80.92
2023-03-29T02:10:29.493Z,82.60
2023-03-29T02:12:58.496Z,82.15
2023-03-29T02:15:28.735Z,81.76
2023-03-29T02:17:57.789Z,81.87
2023-03-29T02:20:29.146Z,81.20
2023-03-29T02:23:03.191Z,80.78
2023-03-29T02:25:32.391Z,81.79
2023-03-29T02:28:01.794Z,81.82
2023-03-29T02:30:34.535Z,81.10
2023-03-29T02:33:06.957Z,81.71
2023-03-29T02:35:39.197Z,82.47
2023-03-29T02:38:10.499Z,83.75
2023-03-29T02:40:40.127Z,83.94
2023-03-29T02:43:09.200Z,82.58
2023-03-29T02:45:40.496Z,83.64
2023-03-29T02:48:11.679Z,84.65
2023-03-29T02:50:41.615Z,82.25
2023-03-29T02:53:14.149Z,82.08
2023-03-29T02:55:42.971Z,81.70
2023-03-29T02:58:13.397Z,81.75
2023-03-29T03:00:45.718Z,82.24
2023-03-29T03:03:15.546Z,82.28
2023-03-29T03:05:44.452Z,83.22
2023-03-29T03:08:13.968Z,83.32
2023-03-29T03:10:42.698Z,83.16
2023-03-29T03:13:11.328Z,83.52
2023-03-29T03:15:42.596Z,83.99
2023-03-29T03:18:12.688Z,83.41
2023-03-29T03:20:41.365Z,83.22
2023-03-29T03:23:10.618Z,83.56
2023-03-29T03:25:39.228Z,84.45
2023-03-29T03:28:07.948Z,84.50
2023-03-29T03:30:36.539Z,84.89
2023-03-29T03:33:05.140Z,84.13
2023-03-29T03:35:35.629Z,82.63
2023-03-29T03:38:04.273Z,83.02
2023-03-29T03:40:33.288Z,82.78
2023-03-29T03:43:01.978Z,83.72
2023-03-29T03:45:31.275Z,83.90
2023-03-29T03:47:59.918Z,82.83
2023-03-29T03:50:28.622Z,82.34
2023-03-29T03:52:58.601Z,82.80
2023-03-29T03:55:29.944Z,80.64
2023-03-29T03:57:58.624Z,81.41
2023-03-29T04:00:27.398Z,82.11
2023-03-29T04:02:56.290Z,81.38
2023-03-29T04:05:25.364Z,80.73
2023-03-29T04:07:54.264Z,80.62
2023-03-29T04:10:24.550Z,79.47
2023-03-29T04:12:53.185Z,79.60
2023-03-29T04:15:22.063Z,80.06
2023-03-29T04:17:50.822Z,80.75
2023-03-29T04:20:19.669Z,80.70
2023-03-29T04:22:48.464Z,81.04
2023-03-29T04:25:17.373Z,81.43
2023-03-29T04:27:47.358Z,82.99
2023-03-29T04:30:16.937Z,82.01
2023-03-29T04:32:45.571Z,81.75
2023-03-29T04:35:14.401Z,81.60
2023-03-29T04:37:43.183Z,80.81
2023-03-29T04:40:14.305Z,81.11
2023-03-29T04:42:44.282Z,81.04
2023-03-29T04:45:14.895Z,81.10
2023-03-29T04:47:43.610Z,82.22
2023-03-29T04:50:12.942Z,82.27
2023-03-29T04:52:42.084Z,82.34
2023-03-29T04:55:12.082Z,82.10
2023-03-29T04:57:41.288Z,82.63
2023-03-29T05:00:15.135Z,82.92
2023-03-29T05:02:46.122Z,80.86
2023-03-29T05:05:15.267Z,80.90
2023-03-29T05:07:44.336Z,80.90
2023-03-29T05:10:13.598Z,81.21
2023-03-29T05:12:42.204Z,81.56
2023-03-29T05:15:11.682Z,82.01
2023-03-29T05:17:40.758Z,82.39
2023-03-29T05:20:13.003Z,83.09
2023-03-29T05:22:41.679Z,81.22
2023-03-29T05:25:13.246Z,80.31
2023-03-29T05:27:42.574Z,80.29
2023-03-29T05:30:12.648Z,81.28
2023-03-29T05:32:41.665Z,80.98
2023-03-29T05:35:11.932Z,79.98
2023-03-29T05:37:40.562Z,80.12
2023-03-29T05:40:10.522Z,79.78
2023-03-29T05:42:39.229Z,79.75
2023-03-29T05:45:09.193Z,79.75
2023-03-29T05:47:37.925Z,80.13
2023-03-29T05:50:09.638Z,80.33
2023-03-29T05:52:41.100Z,81.07
2023-03-29T05:55:10.707Z,81.91
2023-03-29T05:57:39.613Z,80.81
2023-03-29T06:00:16.878Z,79.52
2023-03-29T06:02:45.694Z,80.00
2023-03-29T06:05:14.918Z,80.49
2023-03-29T06:07:45.068Z,79.91
2023-03-29T06:10:14.097Z,78.17
2023-03-29T06:12:42.942Z,77.01
2023-03-29T06:15:13.419Z,76.71
2023-03-29T06:17:42.166Z,76.86
2023-03-29T06:20:11.869Z,76.95
2023-03-29T06:22:41.249Z,78.24
2023-03-29T06:25:12.256Z,77.68
2023-03-29T06:27:40.850Z,76.99
2023-03-29T06:30:10.233Z,77.63
2023-03-29T06:32:38.906Z,78.25
2023-03-29T06:35:08.552Z,77.42
2023-03-29T06:37:37.353Z,77.53
2023-03-29T06:40:09.330Z,76.21
2023-03-29T06:42:40.522Z,77.40
2023-03-29T06:45:10.355Z,76.03
2023-03-29T06:47:38.981Z,75.20
2023-03-29T06:50:08.682Z,75.17
2023-03-29T06:52:42.504Z,74.48
2023-03-29T06:55:12.028Z,74.10
2023-03-29T06:57:42.547Z,74.39
2023-03-29T07:00:19.072Z,74.89
2023-03-29T07:02:48.159Z,74.58
2023-03-29T07:05:17.322Z,74.38
2023-03-29T07:07:56.835Z,74.75
2023-03-29T07:10:28.095Z,74.55
2023-03-29T07:12:58.127Z,73.84
2023-03-29T07:15:27.560Z,74.49
2023-03-29T07:17:57.523Z,74.49
2023-03-29T07:20:26.997Z,71.98
2023-03-29T07:22:56.088Z,71.16
2023-03-29T07:25:27.454Z,71.20
2023-03-29T07:27:56.512Z,71.71
2023-03-29T07:30:31.678Z,71.50
2023-03-29T07:33:01.145Z,74.82
2023-03-29T07:35:30.854Z,70.79
2023-03-29T07:37:59.735Z,72.48
2023-03-29T07:40:28.482Z,72.78
2023-03-29T07:42:58.825Z,73.26
2023-03-29T07:45:29.930Z,74.33
2023-03-29T07:48:02.104Z,74.94
2023-03-29T07:50:32.594Z,72.75
2023-03-29T07:53:02.958Z,67.87
2023-03-29T07:55:31.961Z,67.99
2023-03-29T07:58:01.549Z,67.39
2023-03-29T08:00:32.979Z,66.98
2023-03-29T08:03:03.762Z,69.28
2023-03-29T08:05:40.739Z,68.81
2023-03-29T08:08:10.899Z,66.75
2023-03-29T08:10:39.737Z,70.91
2023-03-29T08:13:09.797Z,69.65
2023-03-29T08:15:41.981Z,67.03
2023-03-29T08:18:10.684Z,69.49
2023-03-29T08:20:39.390Z,70.63
2023-03-29T08:23:08.204Z,71.68
2023-03-29T08:25:37.282Z,71.65
2023-03-29T08:28:05.934Z,71.35
2023-03-29T08:30:34.644Z,70.37
2023-03-29T08:33:04.757Z,65.16
2023-03-29T08:35:33.472Z,63.15
2023-03-29T08:38:02.211Z,62.66
2023-03-29T08:40:31.696Z,65.78
2023-03-29T08:43:22.916Z,69.21
2023-03-29T08:46:02.673Z,67.05
2023-03-29T08:48:35.051Z,62.38
2023-03-29T08:51:08.644Z,67.58
2023-03-29T08:53:44.111Z,68.88
2023-03-29T08:56:14.736Z,69.21
2023-03-29T08:58:43.541Z,66.89
2023-03-29T09:01:12.253Z,66.35
2023-03-29T09:03:46.187Z,63.08
2023-03-29T09:06:15.616Z,63.33
2023-03-29T09:08:46.864Z,61.79
2023-03-29T09:11:28.457Z,59.55
2023-03-29T09:14:03.635Z,59.92
2023-03-29T09:16:37.966Z,63.19
2023-03-29T09:19:17.774Z,62.09
2023-03-29T09:21:51.575Z,60.74
2023-03-29T09:24:38.770Z,60.01
2023-03-29T09:27:10.543Z,57.46
2023-03-29T09:29:51.293Z,57.11
2023-03-29T09:32:23.410Z,56.71
2023-03-29T09:34:59.441Z,56.65
2023-03-29T09:37:32.718Z,56.59
2023-03-29T09:40:03.212Z,57.03
2023-03-29T09:42:33.775Z,57.84
2023-03-29T09:45:08.474Z,55.90
2023-03-29T09:47:40.712Z,58.25
2023-03-29T09:50:27.739Z,56.30
2023-03-29T09:52:59.617Z,55.98
2023-03-29T09:55:31.047Z,54.13
2023-03-29T09:58:02.439Z,53.82
2023-03-29T10:00:31.101Z,55.12
2023-03-29T10:03:00.342Z,53.68
2023-03-29T10:05:32.497Z,53.38
2023-03-29T10:08:02.262Z,53.47
2023-03-29T10:10:32.852Z,52.66
2023-03-29T10:13:04.328Z,52.24
2023-03-29T10:15:33.247Z,52.80
2023-03-29T10:18:04.197Z,52.67
2023-03-29T10:20:36.463Z,47.51
2023-03-29T10:23:08.065Z,50.34
2023-03-29T10:25:42.155Z,51.19
2023-03-29T10:28:14.708Z,48.79
2023-03-29T10:30:43.802Z,50.26
2023-03-29T10:33:17.519Z,49.49
2023-03-29T10:35:47.990Z,47.12
2023-03-29T10:38:19.183Z,49.38
2023-03-29T10:40:48.926Z,50.15
2023-03-29T10:43:22.825Z,49.24
2023-03-29T10:45:53.751Z,51.17
2023-03-29T10:48:26.648Z,50.17
2023-03-29T10:50:59.890Z,49.61
2023-03-29T10:53:30.703Z,49.89
2023-03-29T10:56:12.701Z,47.75
2023-03-29T10:58:53.103Z,48.94
2023-03-29T11:01:26.524Z,49.33
2023-03-29T11:04:04.095Z,48.74
2023-03-29T11:06:38.402Z,49.13
2023-03-29T11:09:14.147Z,48.42
2023-03-29T11:12:04.419Z,45.59
2023-03-29T11:14:42.579Z,43.05
2023-03-29T11:17:26.583Z,44.02
2023-03-29T11:20:04.455Z,44.12
2023-03-29T11:22:42.362Z,47.41
2023-03-29T11:25:21.185Z,46.70
2023-03-29T11:27:55.488Z,46.06
2023-03-29T11:30:26.889Z,44.04
2023-03-29T11:32:59.935Z,43.37
2023-03-29T11:35:37.409Z,42.97
2023-03-29T11:38:15.257Z,46.24
2023-03-29T11:40:51.416Z,41.82
2023-03-29T11:43:21.972Z,42.26
2023-03-29T11:45:53.411Z,42.05
2023-03-29T11:48:25.000Z,42.79
2023-03-29T11:50:57.695Z,42.17
2023-03-29T11:53:31.126Z,41.92
2023-03-29T11:56:05.364Z,42.56
2023-03-29T11:58:38.843Z,44.82
2023-03-29T12:01:11.327Z,44.58
2023-03-29T12:03:46.345Z,43.79
2023-03-29T12:06:18.546Z,42.66
2023-03-29T12:08:52.055Z,43.24
2023-03-29T12:11:25.545Z,42.54
2023-03-29T12:13:57.803Z,43.45
2023-03-29T12:16:28.896Z,42.26
2023-03-29T12:18:59.427Z,42.34
2023-03-29T12:21:30.206Z,42.47
2023-03-29T12:24:00.275Z,41.63
2023-03-29T12:26:38.005Z,42.78
2023-03-29T12:29:16.635Z,40.97
2023-03-29T12:31:50.288Z,40.71
2023-03-29T12:34:31.033Z,41.85
2023-03-29T12:37:07.226Z,40.71
2023-03-29T12:39:38.004Z,40.79
2023-03-29T12:42:12.608Z,39.94
2023-03-29T12:44:43.042Z,40.48
2023-03-29T12:47:19.361Z,40.57
2023-03-29T12:49:48.428Z,40.85
2023-03-29T12:52:26.925Z,38.77
2023-03-29T12:54:58.425Z,40.57
2023-03-29T12:57:29.522Z,41.28
2023-03-29T13:00:11.681Z,42.06
2023-03-29T13:02:40.608Z,42.69
2023-03-29T13:05:31.636Z,43.17
2023-03-29T13:08:00.433Z,44.84
2023-03-29T13:10:39.074Z,43.92
2023-03-29T13:13:16.568Z,43.97
2023-03-29T13:15:46.132Z,44.03
2023-03-29T13:18:37.612Z,43.80
2023-03-29T13:21:15.055Z,44.38
2023-03-29T13:23:50.202Z,44.41
2023-03-29T13:26:27.999Z,44.88
2023-03-29T13:29:16.216Z,45.29
2023-03-29T13:31:48.240Z,44.74
2023-03-29T13:34:30.957Z,47.03
2023-03-29T13:37:05.872Z,47.09
2023-03-29T13:39:36.815Z,48.18
2023-03-29T13:42:20.062Z,49.48
2023-03-29T13:44:49.761Z,51.38
2023-03-29T13:47:38.300Z,51.16
2023-03-29T13:50:13.731Z,51.51
2023-03-29T13:52:45.636Z,51.25
2023-03-29T13:55:19.374Z,51.28
2023-03-29T13:57:53.134Z,51.56
2023-03-29T14:00:25.286Z,51.74
2023-03-29T14:02:56.381Z,50.59
2023-03-29T14:05:29.660Z,50.00
2023-03-29T14:07:58.963Z,51.27
2023-03-29T14:10:30.921Z,53.18
2023-03-29T14:13:03.993Z,54.81
2023-03-29T14:15:43.936Z,57.62
2023-03-29T14:18:13.382Z,58.11
2023-03-29T14:20:44.628Z,61.51
2023-03-29T14:23:16.059Z,62.49
2023-03-29T14:25:45.023Z,62.86
2023-03-29T14:28:20.948Z,61.71
2023-03-29T14:30:52.457Z,62.14
2023-03-29T14:33:28.883Z,62.99
2023-03-29T14:35:58.640Z,63.61
2023-03-29T14:38:28.030Z,63.76
2023-03-29T14:41:00.215Z,63.30
2023-03-29T14:43:32.087Z,64.88
2023-03-29T14:46:04.477Z,63.75
2023-03-29T14:48:34.846Z,64.35
2023-03-29T14:51:03.731Z,65.66
2023-03-29T14:53:34.246Z,65.95
2023-03-29T14:56:03.373Z,66.16
2023-03-29T14:58:35.709Z,65.70
2023-03-29T15:01:09.163Z,63.98
2023-03-29T15:03:44.933Z,63.12
2023-03-29T15:06:14.235Z,61.45
2023-03-29T15:08:54.148Z,60.90
2023-03-29T15:11:31.360Z,61.68
2023-03-29T15:14:04.947Z,59.81
2023-03-29T15:16:34.368Z,60.71
2023-03-29T15:19:03.480Z,60.95
2023-03-29T15:21:34.458Z,60.06
2023-03-29T15:24:04.165Z,58.98
2023-03-29T15:26:34.388Z,59.85
2023-03-29T15:29:08.543Z,60.23
2023-03-29T15:31:38.621Z,61.03
2023-03-29T15:34:09.532Z,59.87
2023-03-29T15:36:42.176Z,58.30
2023-03-29T15:39:13.055Z,60.56
2023-03-29T15:41:42.056Z,58.04
2023-03-29T15:44:12.406Z,56.95
2023-03-29T15:46:41.741Z,60.03
2023-03-29T15:49:12.022Z,60.89
2023-03-29T15:51:41.362Z,59.73
2023-03-29T15:54:09.987Z,59.61
2023-03-29T15:56:44.714Z,60.62
2023-03-29T15:59:14.797Z,58.49
2023-03-29T16:01:43.650Z,60.23
2023-03-29T16:04:14.322Z,57.98
2023-03-29T16:06:43.785Z,60.56
2023-03-29T16:09:12.823Z,60.72
2023-03-29T16:11:42.745Z,60.18
2023-03-29T16:14:19.005Z,57.13
2023-03-29T16:16:47.825Z,56.96
2023-03-29T16:19:16.477Z,57.31
2023-03-29T16:21:45.341Z,56.63
2023-03-29T16:24:15.956Z,56.63
2023-03-29T16:26:44.728Z,57.05
2023-03-29T16:29:15.980Z,55.99
2023-03-29T16:31:44.926Z,56.04
2023-03-29T16:34:14.232Z,56.37
2023-03-29T16:36:44.046Z,56.76
2023-03-29T16:39:13.052Z,56.46
2023-03-29T16:41:42.628Z,57.09
2023-03-29T16:44:15.730Z,57.21
2023-03-29T16:46:44.903Z,57.18
2023-03-29T16:49:18.188Z,57.55
2023-03-29T16:51:48.128Z,57.63
2023-03-29T16:54:18.851Z,58.59
2023-03-29T16:56:47.597Z,58.40
2023-03-29T16:59:17.674Z,57.87
2023-03-29T17:01:46.439Z,58.33
2023-03-29T17:04:15.096Z,58.54
2023-03-29T17:06:43.741Z,58.35
2023-03-29T17:09:12.605Z,59.16
2023-03-29T17:11:41.316Z,59.89
2023-03-29T17:14:10.041Z,59.45
2023-03-29T17:16:40.131Z,59.72
2023-03-29T17:19:08.835Z,59.57
2023-03-29T17:21:37.507Z,60.03
2023-03-29T17:24:06.767Z,60.60
2023-03-29T17:26:35.497Z,61.99
2023-03-29T17:29:04.174Z,61.56
2023-03-29T17:31:34.816Z,64.03
2023-03-29T17:34:04.916Z,65.30
2023-03-29T17:36:33.760Z,65.54
2023-03-29T17:39:02.962Z,65.44
2023-03-29T17:41:31.691Z,64.61
2023-03-29T17:44:01.092Z,64.33
2023-03-29T17:46:30.184Z,64.21
2023-03-29T17:48:59.132Z,64.14
2023-03-29T17:51:29.177Z,65.11
2023-03-29T17:53:58.256Z,65.23
2023-03-29T17:56:27.301Z,65.31
2023-03-29T17:58:56.053Z,65.53
2023-03-29T18:01:24.748Z,67.07
2023-03-29T18:03:53.422Z,66.61
2023-03-29T18:06:22.168Z,66.46
2023-03-29T18:08:53.193Z,65.38
2023-03-29T18:11:24.569Z,65.27
2023-03-29T18:13:54.185Z,65.67
2023-03-29T18:16:23.366Z,64.94
2023-03-29T18:18:52.271Z,65.06
2023-03-29T18:21:21.076Z,65.56
2023-03-29T18:23:52.864Z,65.86
2023-03-29T18:26:24.168Z,65.81
2023-03-29T18:28:53.273Z,66.25
2023-03-29T18:31:22.998Z,66.91
2023-03-29T18:33:51.739Z,66.74
2023-03-29T18:36:20.481Z,66.99
2023-03-29T18:38:49.181Z,68.18
2023-03-29T18:41:17.810Z,68.38
2023-03-29T18:43:47.787Z,67.63
2023-03-29T18:46:16.598Z,66.35
2023-03-29T18:48:45.344Z,65.94
2023-03-29T18:51:14.923Z,67.04
2023-03-29T18:53:44.323Z,67.31
2023-03-29T18:56:12.925Z,68.09
2023-03-29T18:58:41.550Z,68.06
2023-03-29T19:01:12.731Z,68.40
2023-03-29T19:03:41.804Z,68.70
2023-03-29T19:06:11.747Z,69.50
2023-03-29T19:08:41.512Z,70.93
2023-03-29T19:11:14.233Z,70.72
2023-03-29T19:13:45.444Z,70.56
2023-03-29T19:16:15.456Z,70.03
2023-03-29T19:18:44.081Z,70.35
2023-03-29T19:21:13.068Z,70.60
2023-03-29T19:23:41.700Z,71.34
2023-03-29T19:26:10.625Z,70.93
2023-03-29T19:28:39.257Z,70.86
2023-03-29T19:31:09.024Z,71.03
2023-03-29T19:33:40.823Z,71.34
2023-03-29T19:36:09.703Z,71.87
2023-03-29T19:38:38.392Z,71.56
2023-03-29T19:41:08.799Z,73.00
2023-03-29T19:43:37.409Z,72.27
2023-03-29T19:46:07.055Z,72.31
2023-03-29T19:48:35.825Z,73.00
2023-03-29T19:51:06.706Z,72.32
2023-03-29T19:53:38.506Z,70.47
2023-03-29T19:56:10.661Z,69.51
2023-03-29T19:58:39.424Z,69.63
2023-03-29T20:01:08.378Z,70.02
2023-03-29T20:03:37.118Z,70.36
2023-03-29T20:06:08.078Z,71.46
2023-03-29T20:08:38.850Z,71.51
2023-03-29T20:11:10.181Z,72.00
2023-03-29T20:13:39.790Z,72.75
2023-03-29T20:16:10.031Z,73.15
2023-03-29T20:18:44.703Z,74.36
2023-03-29T20:21:16.397Z,74.60
2023-03-29T20:23:45.661Z,74.48
2023-03-29T20:26:15.335Z,74.23
2023-03-29T20:28:44.116Z,74.31
2023-03-29T20:31:13.054Z,74.22
2023-03-29T20:33:44.333Z,73.76
2023-03-29T20:36:18.617Z,73.69
2023-03-29T20:38:47.425Z,74.86
2023-03-29T20:41:16.616Z,74.86
2023-03-29T20:43:46.205Z,74.84
2023-03-29T20:46:22.342Z,74.39
2023-03-29T20:48:54.041Z,75.14
2023-03-29T20:51:28.055Z,75.49
2023-03-29T20:54:02.197Z,75.49
2023-03-29T20:56:31.448Z,76.04
2023-03-29T20:59:00.275Z,75.88
2023-03-29T21:01:30.994Z,75.53
2023-03-29T21:03:59.722Z,75.35
2023-03-29T21:06:30.160Z,74.67
2023-03-29T21:08:58.860Z,74.86
2023-03-29T21:11:27.647Z,74.62
2023-03-29T21:13:56.273Z,75.70
2023-03-29T21:16:25.589Z,75.65
2023-03-29T21:18:54.406Z,75.80
2023-03-29T21:21:23.604Z,75.95
2023-03-29T21:23:53.579Z,74.88
2023-03-29T21:26:22.730Z,75.14
2023-03-29T21:28:51.452Z,75.25
2023-03-29T21:31:20.478Z,75.53
2023-03-29T21:33:49.217Z,76.02
2023-03-29T21:36:17.873Z,76.49
2023-03-29T21:38:46.744Z,76.91
2023-03-29T21:41:17.291Z,75.69
2023-03-29T21:43:45.979Z,76.25
2023-03-29T21:46:14.927Z,75.82
2023-03-29T21:48:43.677Z,75.98
2023-03-29T21:51:12.324Z,75.93
2023-03-29T21:53:41.013Z,75.80
2023-03-29T21:56:11.823Z,75.08
2023-03-29T21:58:41.784Z,75.28
2023-03-29T22:01:10.995Z,75.65
2023-03-29T22:03:39.725Z,75.36
2023-03-29T22:06:09.691Z,75.57
2023-03-29T22:08:40.391Z,75.54
2023-03-29T22:11:10.811Z,75.51
2023-03-29T22:13:41.101Z,75.48
2023-03-29T22:16:13.522Z,76.34
2023-03-29T22:18:46.823Z,76.19
2023-03-29T22:21:18.319Z,76.67
2023-03-29T22:23:48.091Z,76.54
2023-03-29T22:26:18.036Z,76.60
2023-03-29T22:28:48.177Z,76.10
2023-03-29T22:31:19.712Z,76.01
2023-03-29T22:33:49.235Z,76.22
2023-03-29T22:36:19.474Z,76.90
2023-03-29T22:38:48.720Z,76.14
2023-03-29T22:41:18.073Z,76.14
2023-03-29T22:43:48.108Z,76.76
2023-03-29T22:46:17.010Z,77.92
2023-03-29T22:48:46.097Z,76.47
2023-03-29T22:51:15.029Z,76.05
2023-03-29T22:53:43.752Z,76.51
2023-03-29T22:56:13.224Z,75.42
2023-03-29T22:58:41.914Z,75.71
2023-03-29T23:01:12.035Z,75.50
2023-03-29T23:03:40.714Z,75.70
2023-03-29T23:06:09.340Z,75.21
2023-03-29T23:08:37.953Z,75.32
2023-03-29T23:11:07.381Z,75.00
2023-03-29T23:13:36.286Z,75.70
2023-03-29T23:16:05.442Z,75.95
2023-03-29T23:18:37.402Z,74.42
2023-03-29T23:21:08.836Z,74.03
2023-03-29T23:23:38.188Z,73.99
2023-03-29T23:26:08.332Z,74.10
2023-03-29T23:28:37.266Z,74.78
2023-03-29T23:31:09.588Z,74.40
2023-03-29T23:33:42.545Z,74.73
2023-03-29T23:36:13.302Z,74.32
2023-03-29T23:38:42.660Z,74.08
2023-03-29T23:41:12.740Z,74.77
2023-03-29T23:43:42.696Z,74.08
2023-03-29T23:46:13.332Z,74.80
2023-03-29T23:48:47.103Z,75.11
2023-03-29T23:51:18.138Z,76.05
2023-03-29T23:53:47.339Z,75.12
2023-03-29T23:56:16.222Z,75.99
2023-03-29T23:58:45.537Z,77.21
